Terminal Aerodrome Forecast
Issued by NWS Mt. Holly, NJ

Home | Current Version | Previous Version | Text Only | Print | Product List | Glossary On
Versions: 1 2 3 4 5 6 7 8 9 10 11 12
000
FTUS41 KPHI 311133
TAFTTN
TAF
KTTN 311133Z 3112/0112 23004KT P6SM FEW050 SCT200
     FM311600 27008G18KT P6SM SCT050 BKN200
     FM312200 27007KT P6SM SCT050
     FM010000 VRB03KT P6SM SKC
      AMD NOT SKED=

USA.gov is the U.S. government's official web portal to all federal, state and local government web resources and services.